高雄終端管制區 - 高雄雷達席

METAR RCKH 212300Z 10003KT 050V120 8000 FEW015 28/24 Q1013 NOSIG RMK A2994(C)=

站台狀態:Online
最後更新:2018-09-22 07:00:01